sensor_id;sensor_type;location;lat;lon;timestamp;temperature;humidity
52765;DHT22;38650;44.536;18.664;2023-06-10T00:00:46;19.50;97.60
52765;DHT22;38650;44.536;18.664;2023-06-10T00:03:11;19.40;97.90
52765;DHT22;38650;44.536;18.664;2023-06-10T00:05:38;19.40;98.10
52765;DHT22;38650;44.536;18.664;2023-06-10T00:08:06;19.50;97.90
52765;DHT22;38650;44.536;18.664;2023-06-10T00:10:33;19.50;97.90
52765;DHT22;38650;44.536;18.664;2023-06-10T00:13:00;19.50;97.90
52765;DHT22;38650;44.536;18.664;2023-06-10T00:15:26;19.50;97.70
52765;DHT22;38650;44.536;18.664;2023-06-10T00:17:52;19.50;97.40
52765;DHT22;38650;44.536;18.664;2023-06-10T00:20:18;19.50;97.40
52765;DHT22;38650;44.536;18.664;2023-06-10T00:22:43;19.50;97.30
52765;DHT22;38650;44.536;18.664;2023-06-10T00:25:10;19.50;97.40
52765;DHT22;38650;44.536;18.664;2023-06-10T00:27:36;19.40;97.60
52765;DHT22;38650;44.536;18.664;2023-06-10T00:30:02;19.40;97.60
52765;DHT22;38650;44.536;18.664;2023-06-10T00:32:29;19.40;97.50
52765;DHT22;38650;44.536;18.664;2023-06-10T00:34:55;19.40;97.60
52765;DHT22;38650;44.536;18.664;2023-06-10T00:37:21;19.40;97.70
52765;DHT22;38650;44.536;18.664;2023-06-10T00:39:46;19.40;97.60
52765;DHT22;38650;44.536;18.664;2023-06-10T00:42:12;19.40;97.80
52765;DHT22;38650;44.536;18.664;2023-06-10T00:44:37;19.40;97.80
52765;DHT22;38650;44.536;18.664;2023-06-10T00:47:03;19.40;98.00
52765;DHT22;38650;44.536;18.664;2023-06-10T00:49:29;19.40;98.20
52765;DHT22;38650;44.536;18.664;2023-06-10T00:51:54;19.30;98.60
52765;DHT22;38650;44.536;18.664;2023-06-10T00:54:20;19.30;98.50
52765;DHT22;38650;44.536;18.664;2023-06-10T00:56:46;19.30;98.40
52765;DHT22;38650;44.536;18.664;2023-06-10T00:59:12;19.30;98.20
52765;DHT22;38650;44.536;18.664;2023-06-10T01:01:39;19.30;98.50
52765;DHT22;38650;44.536;18.664;2023-06-10T01:04:05;19.20;98.40
52765;DHT22;38650;44.536;18.664;2023-06-10T01:06:36;19.20;98.40
52765;DHT22;38650;44.536;18.664;2023-06-10T01:09:28;19.20;98.00
52765;DHT22;38650;44.536;18.664;2023-06-10T01:12:04;19.20;97.90
52765;DHT22;38650;44.536;18.664;2023-06-10T01:14:34;19.20;98.40
52765;DHT22;38650;44.536;18.664;2023-06-10T01:17:00;19.20;98.00
52765;DHT22;38650;44.536;18.664;2023-06-10T01:19:26;19.10;97.80
52765;DHT22;38650;44.536;18.664;2023-06-10T01:21:53;19.10;97.80
52765;DHT22;38650;44.536;18.664;2023-06-10T01:24:20;19.10;97.70
52765;DHT22;38650;44.536;18.664;2023-06-10T01:26:47;19.10;97.80
52765;DHT22;38650;44.536;18.664;2023-06-10T01:29:16;19.00;97.90
52765;DHT22;38650;44.536;18.664;2023-06-10T01:31:46;19.00;97.90
52765;DHT22;38650;44.536;18.664;2023-06-10T01:34:16;19.00;98.00
52765;DHT22;38650;44.536;18.664;2023-06-10T01:36:42;19.00;98.20
52765;DHT22;38650;44.536;18.664;2023-06-10T01:39:10;19.00;98.30
52765;DHT22;38650;44.536;18.664;2023-06-10T01:41:36;19.00;98.10
52765;DHT22;38650;44.536;18.664;2023-06-10T01:44:02;18.90;98.10
52765;DHT22;38650;44.536;18.664;2023-06-10T01:46:28;18.90;98.30
52765;DHT22;38650;44.536;18.664;2023-06-10T01:48:53;18.90;98.60
52765;DHT22;38650;44.536;18.664;2023-06-10T01:51:19;18.90;98.50
52765;DHT22;38650;44.536;18.664;2023-06-10T01:53:45;18.80;98.40
52765;DHT22;38650;44.536;18.664;2023-06-10T01:56:10;18.80;98.10
52765;DHT22;38650;44.536;18.664;2023-06-10T01:58:42;18.80;98.50
52765;DHT22;38650;44.536;18.664;2023-06-10T02:01:07;18.80;98.40
52765;DHT22;38650;44.536;18.664;2023-06-10T02:03:33;18.60;98.70
52765;DHT22;38650;44.536;18.664;2023-06-10T02:05:58;18.60;98.80
52765;DHT22;38650;44.536;18.664;2023-06-10T02:08:24;18.50;98.80
52765;DHT22;38650;44.536;18.664;2023-06-10T02:10:49;18.50;98.70
52765;DHT22;38650;44.536;18.664;2023-06-10T02:13:15;18.50;98.60
52765;DHT22;38650;44.536;18.664;2023-06-10T02:15:40;18.40;98.80
52765;DHT22;38650;44.536;18.664;2023-06-10T02:18:06;18.30;99.00
52765;DHT22;38650;44.536;18.664;2023-06-10T02:20:31;18.30;99.40
52765;DHT22;38650;44.536;18.664;2023-06-10T02:22:58;18.40;99.60
52765;DHT22;38650;44.536;18.664;2023-06-10T02:25:24;18.40;99.60
52765;DHT22;38650;44.536;18.664;2023-06-10T02:27:49;18.40;99.50
52765;DHT22;38650;44.536;18.664;2023-06-10T02:30:15;18.40;99.50
52765;DHT22;38650;44.536;18.664;2023-06-10T02:32:41;18.40;99.40
52765;DHT22;38650;44.536;18.664;2023-06-10T02:35:07;18.50;99.40
52765;DHT22;38650;44.536;18.664;2023-06-10T02:37:32;18.50;99.50
52765;DHT22;38650;44.536;18.664;2023-06-10T02:39:58;18.40;99.30
52765;DHT22;38650;44.536;18.664;2023-06-10T02:42:23;18.40;99.40
52765;DHT22;38650;44.536;18.664;2023-06-10T02:44:49;18.40;99.70
52765;DHT22;38650;44.536;18.664;2023-06-10T02:47:15;18.50;99.30
52765;DHT22;38650;44.536;18.664;2023-06-10T02:49:40;18.40;99.20
52765;DHT22;38650;44.536;18.664;2023-06-10T02:52:06;18.40;98.90
52765;DHT22;38650;44.536;18.664;2023-06-10T02:54:33;18.30;98.90
52765;DHT22;38650;44.536;18.664;2023-06-10T02:56:58;18.30;99.00
52765;DHT22;38650;44.536;18.664;2023-06-10T02:59:24;18.30;98.90
52765;DHT22;38650;44.536;18.664;2023-06-10T03:01:49;18.30;98.90
52765;DHT22;38650;44.536;18.664;2023-06-10T03:04:15;18.20;98.90
52765;DHT22;38650;44.536;18.664;2023-06-10T03:06:40;18.20;98.70
52765;DHT22;38650;44.536;18.664;2023-06-10T03:09:06;18.20;98.90
52765;DHT22;38650;44.536;18.664;2023-06-10T03:11:35;18.20;99.20
52765;DHT22;38650;44.536;18.664;2023-06-10T03:14:00;18.20;99.10
52765;DHT22;38650;44.536;18.664;2023-06-10T03:16:26;18.20;99.00
52765;DHT22;38650;44.536;18.664;2023-06-10T03:18:52;18.20;99.00
52765;DHT22;38650;44.536;18.664;2023-06-10T03:21:18;18.20;99.10
52765;DHT22;38650;44.536;18.664;2023-06-10T03:23:44;18.20;99.50
52765;DHT22;38650;44.536;18.664;2023-06-10T03:26:10;18.20;99.20
52765;DHT22;38650;44.536;18.664;2023-06-10T03:28:37;18.20;99.30
52765;DHT22;38650;44.536;18.664;2023-06-10T03:31:02;18.20;99.40
52765;DHT22;38650;44.536;18.664;2023-06-10T03:33:28;18.30;99.50
52765;DHT22;38650;44.536;18.664;2023-06-10T03:35:53;18.30;99.70
52765;DHT22;38650;44.536;18.664;2023-06-10T03:38:19;18.30;99.60
52765;DHT22;38650;44.536;18.664;2023-06-10T03:40:44;18.40;99.90
52765;DHT22;38650;44.536;18.664;2023-06-10T03:43:10;18.40;99.70
52765;DHT22;38650;44.536;18.664;2023-06-10T03:45:36;18.50;99.60
52765;DHT22;38650;44.536;18.664;2023-06-10T03:48:01;18.50;99.90
52765;DHT22;38650;44.536;18.664;2023-06-10T03:50:28;18.50;99.90
52765;DHT22;38650;44.536;18.664;2023-06-10T03:52:54;18.50;99.70
52765;DHT22;38650;44.536;18.664;2023-06-10T03:55:20;18.50;99.90
52765;DHT22;38650;44.536;18.664;2023-06-10T03:57:47;18.60;99.50
52765;DHT22;38650;44.536;18.664;2023-06-10T04:00:13;18.60;99.30
52765;DHT22;38650;44.536;18.664;2023-06-10T04:02:39;18.60;99.20
52765;DHT22;38650;44.536;18.664;2023-06-10T04:05:14;18.60;99.00
52765;DHT22;38650;44.536;18.664;2023-06-10T04:07:39;18.60;98.60
52765;DHT22;38650;44.536;18.664;2023-06-10T04:10:12;18.60;99.20
52765;DHT22;38650;44.536;18.664;2023-06-10T04:12:37;18.60;98.90
52765;DHT22;38650;44.536;18.664;2023-06-10T04:15:03;18.70;99.00
52765;DHT22;38650;44.536;18.664;2023-06-10T04:17:29;18.70;99.20
52765;DHT22;38650;44.536;18.664;2023-06-10T04:19:54;18.70;99.30
52765;DHT22;38650;44.536;18.664;2023-06-10T04:22:21;18.80;99.70
52765;DHT22;38650;44.536;18.664;2023-06-10T04:24:46;18.80;99.50
52765;DHT22;38650;44.536;18.664;2023-06-10T04:27:12;18.90;99.30
52765;DHT22;38650;44.536;18.664;2023-06-10T04:29:37;18.90;99.30
52765;DHT22;38650;44.536;18.664;2023-06-10T04:32:03;18.90;99.10
52765;DHT22;38650;44.536;18.664;2023-06-10T04:34:30;19.00;99.00
52765;DHT22;38650;44.536;18.664;2023-06-10T04:36:56;19.00;99.30
52765;DHT22;38650;44.536;18.664;2023-06-10T04:39:22;19.00;99.70
52765;DHT22;38650;44.536;18.664;2023-06-10T04:41:47;19.00;99.50
52765;DHT22;38650;44.536;18.664;2023-06-10T04:44:13;18.90;99.70
52765;DHT22;38650;44.536;18.664;2023-06-10T04:46:39;18.90;99.90
52765;DHT22;38650;44.536;18.664;2023-06-10T04:49:04;18.90;99.90
52765;DHT22;38650;44.536;18.664;2023-06-10T04:51:30;19.00;99.90
52765;DHT22;38650;44.536;18.664;2023-06-10T04:53:57;19.10;99.90
52765;DHT22;38650;44.536;18.664;2023-06-10T04:56:22;19.20;99.90
52765;DHT22;38650;44.536;18.664;2023-06-10T04:58:48;19.20;99.90
52765;DHT22;38650;44.536;18.664;2023-06-10T05:01:13;19.20;99.90
52765;DHT22;38650;44.536;18.664;2023-06-10T05:03:39;19.30;99.70
52765;DHT22;38650;44.536;18.664;2023-06-10T05:06:05;19.30;99.40
52765;DHT22;38650;44.536;18.664;2023-06-10T05:08:30;19.30;99.90
52765;DHT22;38650;44.536;18.664;2023-06-10T05:10:56;19.30;99.90
52765;DHT22;38650;44.536;18.664;2023-06-10T05:13:22;19.40;99.90
52765;DHT22;38650;44.536;18.664;2023-06-10T05:15:47;19.40;99.90
52765;DHT22;38650;44.536;18.664;2023-06-10T05:18:13;19.50;99.90
52765;DHT22;38650;44.536;18.664;2023-06-10T05:20:39;19.50;99.80
52765;DHT22;38650;44.536;18.664;2023-06-10T05:23:04;19.60;99.70
52765;DHT22;38650;44.536;18.664;2023-06-10T05:25:30;19.80;99.90
52765;DHT22;38650;44.536;18.664;2023-06-10T05:27:57;19.90;99.60
52765;DHT22;38650;44.536;18.664;2023-06-10T05:30:23;20.00;98.80
52765;DHT22;38650;44.536;18.664;2023-06-10T05:32:49;20.10;99.20
52765;DHT22;38650;44.536;18.664;2023-06-10T05:35:16;20.20;98.90
52765;DHT22;38650;44.536;18.664;2023-06-10T05:37:42;20.20;98.70
52765;DHT22;38650;44.536;18.664;2023-06-10T05:40:08;20.30;98.40
52765;DHT22;38650;44.536;18.664;2023-06-10T05:42:34;20.40;99.10
52765;DHT22;38650;44.536;18.664;2023-06-10T05:45:00;20.50;98.20
52765;DHT22;38650;44.536;18.664;2023-06-10T05:47:25;20.60;98.30
52765;DHT22;38650;44.536;18.664;2023-06-10T05:49:51;20.80;97.90
52765;DHT22;38650;44.536;18.664;2023-06-10T05:52:17;21.00;97.70
52765;DHT22;38650;44.536;18.664;2023-06-10T05:54:43;21.10;97.20
52765;DHT22;38650;44.536;18.664;2023-06-10T05:57:09;21.10;97.10
52765;DHT22;38650;44.536;18.664;2023-06-10T05:59:35;21.10;97.50
52765;DHT22;38650;44.536;18.664;2023-06-10T06:02:01;21.10;97.70
52765;DHT22;38650;44.536;18.664;2023-06-10T06:04:26;21.20;97.70
52765;DHT22;38650;44.536;18.664;2023-06-10T06:06:52;21.40;98.20
52765;DHT22;38650;44.536;18.664;2023-06-10T06:09:17;21.50;97.60
52765;DHT22;38650;44.536;18.664;2023-06-10T06:11:43;21.60;97.00
52765;DHT22;38650;44.536;18.664;2023-06-10T06:14:09;21.70;96.20
52765;DHT22;38650;44.536;18.664;2023-06-10T06:16:34;21.80;96.70
52765;DHT22;38650;44.536;18.664;2023-06-10T06:19:00;21.90;95.70
52765;DHT22;38650;44.536;18.664;2023-06-10T06:21:25;21.90;95.80
52765;DHT22;38650;44.536;18.664;2023-06-10T06:23:51;22.00;95.40
52765;DHT22;38650;44.536;18.664;2023-06-10T06:26:17;22.10;94.80
52765;DHT22;38650;44.536;18.664;2023-06-10T06:28:42;22.10;94.70
52765;DHT22;38650;44.536;18.664;2023-06-10T06:31:08;22.10;94.40
52765;DHT22;38650;44.536;18.664;2023-06-10T06:33:33;22.20;94.80
52765;DHT22;38650;44.536;18.664;2023-06-10T06:35:59;22.30;93.70
52765;DHT22;38650;44.536;18.664;2023-06-10T06:38:25;22.30;94.10
52765;DHT22;38650;44.536;18.664;2023-06-10T06:40:51;22.50;93.20
52765;DHT22;38650;44.536;18.664;2023-06-10T06:43:17;22.70;94.30
52765;DHT22;38650;44.536;18.664;2023-06-10T06:45:44;22.90;94.40
52765;DHT22;38650;44.536;18.664;2023-06-10T06:48:10;23.10;92.50
52765;DHT22;38650;44.536;18.664;2023-06-10T06:50:36;23.20;92.60
52765;DHT22;38650;44.536;18.664;2023-06-10T06:53:01;23.20;91.60
52765;DHT22;38650;44.536;18.664;2023-06-10T06:55:27;23.30;90.90
52765;DHT22;38650;44.536;18.664;2023-06-10T06:57:53;23.40;91.40
52765;DHT22;38650;44.536;18.664;2023-06-10T07:00:18;23.40;90.80
52765;DHT22;38650;44.536;18.664;2023-06-10T07:02:44;23.50;90.90
52765;DHT22;38650;44.536;18.664;2023-06-10T07:05:10;23.60;90.40
52765;DHT22;38650;44.536;18.664;2023-06-10T07:07:35;23.90;90.30
52765;DHT22;38650;44.536;18.664;2023-06-10T07:10:01;24.20;91.20
52765;DHT22;38650;44.536;18.664;2023-06-10T07:12:27;24.40;88.60
52765;DHT22;38650;44.536;18.664;2023-06-10T07:14:52;24.20;85.70
52765;DHT22;38650;44.536;18.664;2023-06-10T07:17:18;24.00;87.60
52765;DHT22;38650;44.536;18.664;2023-06-10T07:19:44;24.00;88.20
52765;DHT22;38650;44.536;18.664;2023-06-10T07:22:09;24.20;88.60
52765;DHT22;38650;44.536;18.664;2023-06-10T07:24:35;24.40;90.00
52765;DHT22;38650;44.536;18.664;2023-06-10T07:27:00;24.70;87.80
52765;DHT22;38650;44.536;18.664;2023-06-10T07:29:26;24.80;87.60
52765;DHT22;38650;44.536;18.664;2023-06-10T07:31:52;24.90;87.90
52765;DHT22;38650;44.536;18.664;2023-06-10T07:34:18;24.90;83.40
52765;DHT22;38650;44.536;18.664;2023-06-10T07:36:44;25.00;83.20
52765;DHT22;38650;44.536;18.664;2023-06-10T07:39:09;25.10;83.10
52765;DHT22;38650;44.536;18.664;2023-06-10T07:41:35;25.20;83.60
52765;DHT22;38650;44.536;18.664;2023-06-10T07:44:01;25.90;84.30
52765;DHT22;38650;44.536;18.664;2023-06-10T07:46:27;27.90;82.10
52765;DHT22;38650;44.536;18.664;2023-06-10T07:48:53;30.30;74.60
52765;DHT22;38650;44.536;18.664;2023-06-10T07:51:20;31.80;71.50
52765;DHT22;38650;44.536;18.664;2023-06-10T07:53:45;32.60;63.50
52765;DHT22;38650;44.536;18.664;2023-06-10T07:56:11;33.50;65.80
52765;DHT22;38650;44.536;18.664;2023-06-10T07:58:36;33.90;58.10
52765;DHT22;38650;44.536;18.664;2023-06-10T08:01:02;34.40;59.90
52765;DHT22;38650;44.536;18.664;2023-06-10T08:03:27;35.10;57.20
52765;DHT22;38650;44.536;18.664;2023-06-10T08:05:53;35.40;55.30
52765;DHT22;38650;44.536;18.664;2023-06-10T08:08:19;35.80;55.30
52765;DHT22;38650;44.536;18.664;2023-06-10T08:10:44;36.00;53.90
52765;DHT22;38650;44.536;18.664;2023-06-10T08:13:10;36.40;53.60
52765;DHT22;38650;44.536;18.664;2023-06-10T08:15:36;36.60;52.00
52765;DHT22;38650;44.536;18.664;2023-06-10T08:18:01;37.10;51.30
52765;DHT22;38650;44.536;18.664;2023-06-10T08:20:27;37.40;51.60
52765;DHT22;38650;44.536;18.664;2023-06-10T08:22:52;37.50;50.70
52765;DHT22;38650;44.536;18.664;2023-06-10T08:25:18;37.80;49.30
52765;DHT22;38650;44.536;18.664;2023-06-10T08:27:43;37.90;50.60
52765;DHT22;38650;44.536;18.664;2023-06-10T08:30:09;37.90;49.40
52765;DHT22;38650;44.536;18.664;2023-06-10T08:32:36;38.10;49.00
52765;DHT22;38650;44.536;18.664;2023-06-10T08:35:02;38.10;48.80
52765;DHT22;38650;44.536;18.664;2023-06-10T08:37:27;37.50;49.50
52765;DHT22;38650;44.536;18.664;2023-06-10T08:39:53;37.40;49.00
52765;DHT22;38650;44.536;18.664;2023-06-10T08:44:47;36.80;51.50
52765;DHT22;38650;44.536;18.664;2023-06-10T08:47:16;36.70;50.70
52765;DHT22;38650;44.536;18.664;2023-06-10T08:49:45;37.20;49.30
52765;DHT22;38650;44.536;18.664;2023-06-10T08:52:14;37.50;46.90
52765;DHT22;38650;44.536;18.664;2023-06-10T08:54:41;37.20;47.60
52765;DHT22;38650;44.536;18.664;2023-06-10T08:57:07;37.40;47.30
52765;DHT22;38650;44.536;18.664;2023-06-10T08:59:33;37.20;46.70
52765;DHT22;38650;44.536;18.664;2023-06-10T09:01:58;36.70;48.00
52765;DHT22;38650;44.536;18.664;2023-06-10T09:04:24;36.90;47.70
52765;DHT22;38650;44.536;18.664;2023-06-10T09:06:50;37.40;47.40
52765;DHT22;38650;44.536;18.664;2023-06-10T09:09:16;36.90;48.00
52765;DHT22;38650;44.536;18.664;2023-06-10T09:11:43;36.90;46.70
52765;DHT22;38650;44.536;18.664;2023-06-10T09:14:08;37.10;48.80
52765;DHT22;38650;44.536;18.664;2023-06-10T09:16:34;36.80;49.00
52765;DHT22;38650;44.536;18.664;2023-06-10T09:19:00;37.20;50.00
52765;DHT22;38650;44.536;18.664;2023-06-10T09:21:25;37.10;46.90
52765;DHT22;38650;44.536;18.664;2023-06-10T09:23:51;37.00;50.50
52765;DHT22;38650;44.536;18.664;2023-06-10T09:26:17;37.40;48.30
52765;DHT22;38650;44.536;18.664;2023-06-10T09:28:43;37.10;45.60
52765;DHT22;38650;44.536;18.664;2023-06-10T09:31:09;37.00;46.60
52765;DHT22;38650;44.536;18.664;2023-06-10T09:33:38;37.00;48.10
52765;DHT22;38650;44.536;18.664;2023-06-10T09:36:04;37.40;50.50
52765;DHT22;38650;44.536;18.664;2023-06-10T09:38:31;37.00;48.40
52765;DHT22;38650;44.536;18.664;2023-06-10T09:41:00;35.50;46.70
52765;DHT22;38650;44.536;18.664;2023-06-10T09:43:41;34.10;48.80
52765;DHT22;38650;44.536;18.664;2023-06-10T09:46:17;32.90;51.50
52765;DHT22;38650;44.536;18.664;2023-06-10T09:48:43;32.20;52.50
52765;DHT22;38650;44.536;18.664;2023-06-10T09:51:09;31.60;55.00
52765;DHT22;38650;44.536;18.664;2023-06-10T09:53:35;31.20;56.40
52765;DHT22;38650;44.536;18.664;2023-06-10T09:56:01;30.90;57.60
52765;DHT22;38650;44.536;18.664;2023-06-10T09:58:39;30.80;58.50
52765;DHT22;38650;44.536;18.664;2023-06-10T10:01:05;30.60;61.20
52765;DHT22;38650;44.536;18.664;2023-06-10T10:03:31;30.30;62.20
52765;DHT22;38650;44.536;18.664;2023-06-10T10:06:00;31.00;60.30
52765;DHT22;38650;44.536;18.664;2023-06-10T10:08:26;31.00;59.70
52765;DHT22;38650;44.536;18.664;2023-06-10T10:10:51;30.70;60.60
52765;DHT22;38650;44.536;18.664;2023-06-10T10:13:17;30.70;61.90
52765;DHT22;38650;44.536;18.664;2023-06-10T10:15:43;30.80;59.40
52765;DHT22;38650;44.536;18.664;2023-06-10T10:18:10;31.20;60.80
52765;DHT22;38650;44.536;18.664;2023-06-10T10:20:38;32.00;63.90
52765;DHT22;38650;44.536;18.664;2023-06-10T10:23:07;32.80;54.10
52765;DHT22;38650;44.536;18.664;2023-06-10T10:25:40;33.70;53.60
52765;DHT22;38650;44.536;18.664;2023-06-10T10:28:10;34.30;51.40
52765;DHT22;38650;44.536;18.664;2023-06-10T10:30:45;34.50;49.30
52765;DHT22;38650;44.536;18.664;2023-06-10T10:33:31;34.80;47.90
52765;DHT22;38650;44.536;18.664;2023-06-10T10:35:58;35.20;51.00
52765;DHT22;38650;44.536;18.664;2023-06-10T10:38:24;35.20;51.10
52765;DHT22;38650;44.536;18.664;2023-06-10T10:40:50;34.40;48.50
52765;DHT22;38650;44.536;18.664;2023-06-10T10:43:16;33.70;48.40
52765;DHT22;38650;44.536;18.664;2023-06-10T10:45:42;33.10;49.00
52765;DHT22;38650;44.536;18.664;2023-06-10T10:48:08;32.60;51.20
52765;DHT22;38650;44.536;18.664;2023-06-10T10:50:36;32.50;54.30
52765;DHT22;38650;44.536;18.664;2023-06-10T10:53:02;32.70;53.10
52765;DHT22;38650;44.536;18.664;2023-06-10T10:55:28;32.60;54.60
52765;DHT22;38650;44.536;18.664;2023-06-10T10:58:03;32.30;54.10
52765;DHT22;38650;44.536;18.664;2023-06-10T11:05:31;30.90;51.90
52765;DHT22;38650;44.536;18.664;2023-06-10T11:07:57;29.60;52.60
52765;DHT22;38650;44.536;18.664;2023-06-10T11:10:30;29.00;54.00
52765;DHT22;38650;44.536;18.664;2023-06-10T11:12:56;28.20;55.40
52765;DHT22;38650;44.536;18.664;2023-06-10T11:15:22;27.60;55.80
52765;DHT22;38650;44.536;18.664;2023-06-10T11:28:37;25.20;73.90
52765;DHT22;38650;44.536;18.664;2023-06-10T11:31:03;25.10;74.60
52765;DHT22;38650;44.536;18.664;2023-06-10T11:33:28;25.10;76.50
52765;DHT22;38650;44.536;18.664;2023-06-10T11:35:54;25.30;78.10
52765;DHT22;38650;44.536;18.664;2023-06-10T11:38:20;25.50;79.30
52765;DHT22;38650;44.536;18.664;2023-06-10T11:40:47;25.50;79.50
52765;DHT22;38650;44.536;18.664;2023-06-10T11:43:14;26.50;91.90
52765;DHT22;38650;44.536;18.664;2023-06-10T11:45:41;27.20;81.60
52765;DHT22;38650;44.536;18.664;2023-06-10T11:48:06;27.60;81.20
52765;DHT22;38650;44.536;18.664;2023-06-10T11:50:32;28.10;77.50
52765;DHT22;38650;44.536;18.664;2023-06-10T11:52:58;28.50;78.40
52765;DHT22;38650;44.536;18.664;2023-06-10T11:55:25;28.70;76.10
52765;DHT22;38650;44.536;18.664;2023-06-10T11:57:51;28.70;73.50
52765;DHT22;38650;44.536;18.664;2023-06-10T12:00:23;28.90;74.90
52765;DHT22;38650;44.536;18.664;2023-06-10T12:02:56;29.20;76.40
52765;DHT22;38650;44.536;18.664;2023-06-10T12:05:23;29.20;72.70
52765;DHT22;38650;44.536;18.664;2023-06-10T12:07:48;29.40;75.00
52765;DHT22;38650;44.536;18.664;2023-06-10T12:10:14;29.70;70.90
52765;DHT22;38650;44.536;18.664;2023-06-10T12:12:39;30.20;70.80
52765;DHT22;38650;44.536;18.664;2023-06-10T12:15:06;30.50;71.80
52765;DHT22;38650;44.536;18.664;2023-06-10T12:19:59;30.50;68.40
52765;DHT22;38650;44.536;18.664;2023-06-10T12:22:25;30.40;65.50
52765;DHT22;38650;44.536;18.664;2023-06-10T12:27:25;29.70;63.80
52765;DHT22;38650;44.536;18.664;2023-06-10T12:29:51;29.60;64.00
52765;DHT22;38650;44.536;18.664;2023-06-10T12:32:19;29.90;70.10
52765;DHT22;38650;44.536;18.664;2023-06-10T12:34:45;30.60;71.30
52765;DHT22;38650;44.536;18.664;2023-06-10T12:37:12;31.10;63.50
52765;DHT22;38650;44.536;18.664;2023-06-10T12:39:41;31.60;61.00
52765;DHT22;38650;44.536;18.664;2023-06-10T12:42:08;32.00;62.30
52765;DHT22;38650;44.536;18.664;2023-06-10T12:44:43;32.40;62.90
52765;DHT22;38650;44.536;18.664;2023-06-10T12:47:12;32.70;61.10
52765;DHT22;38650;44.536;18.664;2023-06-10T12:49:38;33.00;57.70
52765;DHT22;38650;44.536;18.664;2023-06-10T12:52:04;32.90;59.70
52765;DHT22;38650;44.536;18.664;2023-06-10T12:54:30;32.80;58.70
52765;DHT22;38650;44.536;18.664;2023-06-10T12:56:55;32.70;58.90
52765;DHT22;38650;44.536;18.664;2023-06-10T12:59:21;32.80;58.30
52765;DHT22;38650;44.536;18.664;2023-06-10T13:01:50;32.80;57.50
52765;DHT22;38650;44.536;18.664;2023-06-10T13:04:17;32.90;56.80
52765;DHT22;38650;44.536;18.664;2023-06-10T13:06:43;32.70;56.20
52765;DHT22;38650;44.536;18.664;2023-06-10T13:09:09;32.30;56.90
52765;DHT22;38650;44.536;18.664;2023-06-10T13:11:36;31.90;57.20
52765;DHT22;38650;44.536;18.664;2023-06-10T13:14:03;31.60;61.80
52765;DHT22;38650;44.536;18.664;2023-06-10T13:16:30;31.40;58.90
52765;DHT22;38650;44.536;18.664;2023-06-10T13:18:55;31.20;60.30
52765;DHT22;38650;44.536;18.664;2023-06-10T13:21:21;30.80;64.40
52765;DHT22;38650;44.536;18.664;2023-06-10T13:23:47;30.40;65.70
52765;DHT22;38650;44.536;18.664;2023-06-10T13:26:16;30.00;66.90
52765;DHT22;38650;44.536;18.664;2023-06-10T13:28:45;29.50;69.70
52765;DHT22;38650;44.536;18.664;2023-06-10T13:31:10;29.10;70.10
52765;DHT22;38650;44.536;18.664;2023-06-10T13:33:36;28.80;71.30
52765;DHT22;38650;44.536;18.664;2023-06-10T13:36:02;28.50;73.80
52765;DHT22;38650;44.536;18.664;2023-06-10T13:38:27;28.60;74.30
52765;DHT22;38650;44.536;18.664;2023-06-10T13:40:53;28.60;73.30
52765;DHT22;38650;44.536;18.664;2023-06-10T13:43:18;28.50;73.70
52765;DHT22;38650;44.536;18.664;2023-06-10T13:45:44;28.30;71.30
52765;DHT22;38650;44.536;18.664;2023-06-10T13:48:10;28.40;70.20
52765;DHT22;38650;44.536;18.664;2023-06-10T13:50:36;28.40;73.40
52765;DHT22;38650;44.536;18.664;2023-06-10T13:53:02;28.40;71.20
52765;DHT22;38650;44.536;18.664;2023-06-10T13:55:28;28.40;73.10
52765;DHT22;38650;44.536;18.664;2023-06-10T13:57:53;28.80;70.40
52765;DHT22;38650;44.536;18.664;2023-06-10T14:00:19;29.10;66.80
52765;DHT22;38650;44.536;18.664;2023-06-10T14:02:44;29.30;65.20
52765;DHT22;38650;44.536;18.664;2023-06-10T14:05:10;29.10;65.30
52765;DHT22;38650;44.536;18.664;2023-06-10T14:07:35;28.80;65.40
52765;DHT22;38650;44.536;18.664;2023-06-10T14:10:02;28.70;65.80
52765;DHT22;38650;44.536;18.664;2023-06-10T14:12:28;29.20;69.70
52765;DHT22;38650;44.536;18.664;2023-06-10T14:14:53;29.70;63.60
52765;DHT22;38650;44.536;18.664;2023-06-10T14:17:19;29.70;64.20
52765;DHT22;38650;44.536;18.664;2023-06-10T14:19:45;29.70;63.90
52765;DHT22;38650;44.536;18.664;2023-06-10T14:22:10;29.80;62.80
52765;DHT22;38650;44.536;18.664;2023-06-10T14:24:36;30.40;62.50
52765;DHT22;38650;44.536;18.664;2023-06-10T14:27:02;30.70;59.50
52765;DHT22;38650;44.536;18.664;2023-06-10T14:29:28;31.10;60.80
52765;DHT22;38650;44.536;18.664;2023-06-10T14:31:57;31.30;59.10
52765;DHT22;38650;44.536;18.664;2023-06-10T14:34:22;31.30;59.10
52765;DHT22;38650;44.536;18.664;2023-06-10T14:36:53;31.20;58.30
52765;DHT22;38650;44.536;18.664;2023-06-10T14:39:19;31.00;58.60
52765;DHT22;38650;44.536;18.664;2023-06-10T14:41:45;30.70;59.20
52765;DHT22;38650;44.536;18.664;2023-06-10T14:44:10;30.50;58.20
52765;DHT22;38650;44.536;18.664;2023-06-10T14:46:36;30.20;59.40
52765;DHT22;38650;44.536;18.664;2023-06-10T14:49:01;29.90;58.90
52765;DHT22;38650;44.536;18.664;2023-06-10T14:51:27;29.60;59.80
52765;DHT22;38650;44.536;18.664;2023-06-10T14:53:53;29.50;62.90
52765;DHT22;38650;44.536;18.664;2023-06-10T14:56:19;29.30;67.20
52765;DHT22;38650;44.536;18.664;2023-06-10T14:58:44;29.00;69.10
52765;DHT22;38650;44.536;18.664;2023-06-10T15:01:10;28.70;69.90
52765;DHT22;38650;44.536;18.664;2023-06-10T15:03:35;28.40;69.60
52765;DHT22;38650;44.536;18.664;2023-06-10T15:06:01;28.30;69.60
52765;DHT22;38650;44.536;18.664;2023-06-10T15:08:26;28.40;67.00
52765;DHT22;38650;44.536;18.664;2023-06-10T15:10:53;28.40;64.40
52765;DHT22;38650;44.536;18.664;2023-06-10T15:13:19;28.40;65.80
52765;DHT22;38650;44.536;18.664;2023-06-10T15:15:44;28.50;67.80
52765;DHT22;38650;44.536;18.664;2023-06-10T15:18:10;28.60;66.60
52765;DHT22;38650;44.536;18.664;2023-06-10T15:20:35;28.60;65.70
52765;DHT22;38650;44.536;18.664;2023-06-10T15:23:01;28.80;66.00
52765;DHT22;38650;44.536;18.664;2023-06-10T15:25:27;28.70;66.20
52765;DHT22;38650;44.536;18.664;2023-06-10T15:27:52;28.60;66.80
52765;DHT22;38650;44.536;18.664;2023-06-10T15:30:18;28.70;68.70
52765;DHT22;38650;44.536;18.664;2023-06-10T15:32:43;28.50;68.30